createdAt,value
2022-12-31T00:01:07.767Z,81.30
2022-12-31T00:03:36.126Z,81.30
2022-12-31T00:06:16.558Z,81.20
2022-12-31T00:08:44.789Z,81.50
2022-12-31T00:11:13.358Z,81.20
2022-12-31T00:13:43.076Z,81.20
2022-12-31T00:16:14.028Z,81.30
2022-12-31T00:18:45.310Z,81.30
2022-12-31T00:21:15.806Z,81.30
2022-12-31T00:23:44.401Z,81.20
2022-12-31T00:26:15.382Z,81.20
2022-12-31T00:28:44.285Z,81.20
2022-12-31T00:31:15.253Z,81.20
2022-12-31T00:33:43.865Z,81.00
2022-12-31T00:36:14.289Z,81.00
2022-12-31T00:38:46.421Z,81.10
2022-12-31T00:41:15.870Z,81.10
2022-12-31T00:43:44.443Z,81.10
2022-12-31T00:46:13.415Z,81.20
2022-12-31T00:48:41.792Z,81.10
2022-12-31T00:51:13.239Z,81.20
2022-12-31T00:53:42.995Z,81.10
2022-12-31T00:56:13.415Z,81.00
2022-12-31T00:58:42.191Z,81.20
2022-12-31T01:01:11.648Z,81.20
2022-12-31T01:03:39.902Z,81.20
2022-12-31T01:06:09.135Z,81.00
2022-12-31T01:08:37.904Z,81.00
2022-12-31T01:11:23.261Z,81.00
2022-12-31T01:13:54.359Z,80.90
2022-12-31T01:16:25.430Z,80.80
2022-12-31T01:18:54.577Z,80.80
2022-12-31T01:21:23.655Z,80.80
2022-12-31T01:23:52.062Z,80.80
2022-12-31T01:26:22.009Z,80.70
2022-12-31T01:28:50.352Z,80.70
2022-12-31T01:31:20.150Z,80.50
2022-12-31T01:33:48.678Z,80.60
2022-12-31T01:36:25.290Z,80.50
2022-12-31T01:38:54.662Z,80.40
2022-12-31T01:41:26.308Z,80.40
2022-12-31T01:43:56.959Z,80.40
2022-12-31T01:46:35.887Z,80.40
2022-12-31T01:49:11.120Z,80.30
2022-12-31T01:51:42.091Z,80.90
2022-12-31T01:54:13.571Z,80.20
2022-12-31T01:56:46.749Z,80.10
2022-12-31T01:59:17.334Z,80.10
2022-12-31T02:01:48.380Z,79.90
2022-12-31T02:04:17.570Z,79.90
2022-12-31T02:06:49.934Z,79.80
2022-12-31T02:09:18.122Z,79.80
2022-12-31T02:11:47.687Z,79.80
2022-12-31T02:14:18.150Z,79.80
2022-12-31T02:16:54.426Z,79.80
2022-12-31T02:19:56.511Z,79.90
2022-12-31T02:22:38.082Z,79.90
2022-12-31T02:25:30.120Z,79.70
2022-12-31T02:28:11.712Z,79.50
2022-12-31T02:30:43.448Z,79.30
2022-12-31T02:33:18.089Z,79.10
2022-12-31T02:35:52.527Z,79.10
2022-12-31T02:38:24.609Z,79.10
2022-12-31T02:40:54.960Z,79.10
2022-12-31T02:43:23.410Z,79.10
2022-12-31T02:46:02.959Z,79.10
2022-12-31T02:48:48.064Z,79.00
2022-12-31T02:51:32.929Z,78.90
2022-12-31T02:54:29.297Z,78.90
2022-12-31T02:57:07.590Z,78.80
2022-12-31T02:59:58.354Z,78.40
2022-12-31T03:02:31.948Z,78.30
2022-12-31T03:05:03.321Z,78.20
2022-12-31T03:07:33.442Z,78.20
2022-12-31T03:10:02.118Z,78.10
2022-12-31T03:12:46.966Z,78.10
2022-12-31T03:15:23.842Z,78.10
2022-12-31T03:17:56.488Z,78.00
2022-12-31T03:20:45.159Z,78.00
2022-12-31T03:23:16.239Z,78.00
2022-12-31T03:25:44.311Z,78.00
2022-12-31T03:28:14.487Z,77.90
2022-12-31T03:30:48.145Z,77.90
2022-12-31T03:33:17.893Z,77.90
2022-12-31T03:35:48.078Z,77.90
2022-12-31T03:38:17.478Z,77.80
2022-12-31T03:40:47.251Z,77.80
2022-12-31T03:43:15.788Z,78.60
2022-12-31T03:45:44.131Z,77.80
2022-12-31T03:48:12.493Z,77.90
2022-12-31T03:50:42.069Z,77.90
2022-12-31T03:53:10.316Z,77.80
2022-12-31T03:55:38.605Z,77.70
2022-12-31T03:58:07.121Z,77.80
2022-12-31T04:00:35.334Z,77.80
2022-12-31T04:03:03.513Z,77.60
2022-12-31T04:05:32.368Z,77.60
2022-12-31T04:08:03.073Z,77.50
2022-12-31T04:10:31.275Z,77.40
2022-12-31T04:13:00.329Z,77.40
2022-12-31T04:15:28.486Z,77.40
2022-12-31T04:17:56.650Z,77.40
2022-12-31T04:20:24.837Z,77.50
2022-12-31T04:22:53.025Z,78.30
2022-12-31T04:25:22.568Z,77.50
2022-12-31T04:27:50.781Z,77.50
2022-12-31T04:30:18.982Z,77.50
2022-12-31T04:32:47.296Z,77.40
2022-12-31T04:35:15.453Z,77.30
2022-12-31T04:37:43.639Z,77.30
2022-12-31T04:40:12.548Z,77.30
2022-12-31T04:42:42.075Z,77.20
2022-12-31T04:45:11.074Z,77.10
2022-12-31T04:47:39.295Z,77.80
2022-12-31T04:50:08.358Z,77.00
2022-12-31T04:52:42.366Z,76.80
2022-12-31T04:55:11.734Z,76.60
2022-12-31T04:57:41.983Z,76.50
2022-12-31T05:00:11.278Z,76.50
2022-12-31T05:02:39.650Z,76.40
2022-12-31T05:05:08.655Z,76.50
2022-12-31T05:07:36.858Z,76.20
2022-12-31T05:10:06.018Z,76.20
2022-12-31T05:12:34.174Z,76.20
2022-12-31T05:15:03.815Z,76.20
2022-12-31T05:17:31.995Z,76.20
2022-12-31T05:20:00.171Z,76.20
2022-12-31T05:22:31.109Z,76.20
2022-12-31T05:25:00.571Z,76.20
2022-12-31T05:27:31.403Z,76.20
2022-12-31T05:29:59.976Z,76.10
2022-12-31T05:32:29.698Z,76.10
2022-12-31T05:34:59.633Z,76.10
2022-12-31T05:37:28.606Z,76.10
2022-12-31T05:39:56.884Z,76.10
2022-12-31T05:42:25.366Z,75.90
2022-12-31T05:44:53.537Z,75.80
2022-12-31T05:47:21.761Z,75.90
2022-12-31T05:49:51.361Z,76.40
2022-12-31T05:52:19.690Z,75.70
2022-12-31T05:54:47.864Z,75.70
2022-12-31T05:57:16.172Z,75.40
2022-12-31T05:59:44.353Z,75.40
2022-12-31T06:02:12.636Z,75.50
2022-12-31T06:04:41.054Z,75.40
2022-12-31T06:07:10.594Z,75.50
2022-12-31T06:09:38.904Z,75.40
2022-12-31T06:12:10.829Z,75.20
2022-12-31T06:14:45.250Z,75.10
2022-12-31T06:17:13.953Z,75.40
2022-12-31T06:19:42.154Z,75.10
2022-12-31T06:22:11.813Z,74.80
2022-12-31T06:24:40.056Z,74.90
2022-12-31T06:27:08.217Z,75.00
2022-12-31T06:29:36.505Z,75.00
2022-12-31T06:32:05.031Z,75.00
2022-12-31T06:34:33.466Z,75.00
2022-12-31T06:37:01.748Z,74.90
2022-12-31T06:39:31.330Z,75.00
2022-12-31T06:41:59.493Z,75.10
2022-12-31T06:44:27.803Z,74.90
2022-12-31T06:46:56.082Z,74.90
2022-12-31T06:49:24.303Z,74.80
2022-12-31T06:51:52.642Z,74.70
2022-12-31T06:54:20.991Z,74.70
2022-12-31T06:56:51.301Z,74.70
2022-12-31T06:59:27.874Z,74.60
2022-12-31T07:02:23.523Z,74.50
2022-12-31T07:05:12.876Z,74.50
2022-12-31T07:07:56.474Z,75.00
2022-12-31T07:10:34.023Z,74.20
2022-12-31T07:13:15.917Z,74.10
2022-12-31T07:16:02.043Z,74.10
2022-12-31T07:18:39.757Z,74.10
2022-12-31T07:21:14.531Z,74.80
2022-12-31T07:23:43.933Z,74.00
2022-12-31T07:26:21.046Z,74.30
2022-12-31T07:29:02.272Z,73.90
2022-12-31T07:31:46.067Z,73.70
2022-12-31T07:34:22.315Z,73.70
2022-12-31T07:37:03.154Z,73.50
2022-12-31T07:39:40.358Z,73.30
2022-12-31T07:42:16.505Z,73.20
2022-12-31T07:45:02.468Z,73.20
2022-12-31T07:47:31.232Z,73.20
2022-12-31T07:50:00.019Z,73.20
2022-12-31T07:52:28.877Z,72.90
2022-12-31T07:54:57.109Z,73.10
2022-12-31T07:57:33.049Z,72.90
2022-12-31T08:00:09.273Z,72.70
2022-12-31T08:03:06.831Z,72.60
2022-12-31T08:05:43.743Z,72.40
2022-12-31T08:08:24.572Z,72.40
2022-12-31T08:11:09.170Z,72.50
2022-12-31T08:13:37.659Z,72.40
2022-12-31T08:16:12.161Z,72.50
2022-12-31T08:18:41.099Z,72.50
2022-12-31T08:21:21.734Z,72.60
2022-12-31T08:23:59.728Z,72.60
2022-12-31T08:26:37.544Z,72.70
2022-12-31T08:29:21.054Z,72.70
2022-12-31T08:31:57.047Z,72.80
2022-12-31T08:34:32.840Z,72.90
2022-12-31T08:37:06.181Z,73.10
2022-12-31T08:39:57.934Z,73.20
2022-12-31T08:42:33.610Z,73.30
2022-12-31T08:45:10.535Z,73.40
2022-12-31T08:47:46.827Z,73.40
2022-12-31T08:50:16.807Z,73.60
2022-12-31T08:52:45.531Z,73.70
2022-12-31T08:55:16.546Z,73.80
2022-12-31T08:57:54.466Z,73.80
2022-12-31T09:00:23.672Z,73.80
2022-12-31T09:03:16.293Z,73.90
2022-12-31T09:05:59.315Z,74.00
2022-12-31T09:08:38.342Z,74.00
2022-12-31T09:11:19.170Z,74.10
2022-12-31T09:14:08.823Z,74.00
2022-12-31T09:16:45.598Z,74.20
2022-12-31T09:19:15.410Z,74.10
2022-12-31T09:21:45.455Z,74.10
2022-12-31T09:24:15.046Z,74.20
2022-12-31T09:26:53.836Z,74.10
2022-12-31T09:29:38.266Z,74.20
2022-12-31T09:32:15.692Z,74.30
2022-12-31T09:34:54.401Z,74.30
2022-12-31T09:37:30.533Z,74.40
2022-12-31T09:40:03.559Z,74.30
2022-12-31T09:42:58.598Z,74.30
2022-12-31T09:45:52.916Z,74.30
2022-12-31T09:48:53.905Z,74.20
2022-12-31T09:51:30.061Z,74.20
2022-12-31T09:54:20.555Z,74.10
2022-12-31T09:57:01.875Z,74.00
2022-12-31T09:59:36.318Z,73.80
2022-12-31T10:02:21.475Z,73.70
2022-12-31T10:05:05.150Z,73.20
2022-12-31T10:07:53.538Z,72.90
2022-12-31T10:10:27.325Z,72.70
2022-12-31T10:13:27.634Z,72.70
2022-12-31T10:16:25.798Z,72.30
2022-12-31T10:19:21.936Z,71.90
2022-12-31T10:22:00.173Z,71.80
2022-12-31T10:25:03.501Z,71.70
2022-12-31T10:27:48.883Z,71.50
2022-12-31T10:30:19.347Z,71.00
2022-12-31T10:33:01.111Z,71.00
2022-12-31T10:35:36.672Z,70.80
2022-12-31T10:38:17.338Z,70.60
2022-12-31T10:41:21.633Z,70.40
2022-12-31T10:44:14.007Z,70.20
2022-12-31T10:47:27.185Z,70.30
2022-12-31T10:50:33.586Z,70.00
2022-12-31T10:53:34.939Z,70.00
2022-12-31T10:56:38.717Z,70.10
2022-12-31T10:59:50.815Z,69.90
2022-12-31T11:02:49.344Z,70.10
2022-12-31T11:05:50.792Z,69.90
2022-12-31T11:08:43.514Z,70.10
2022-12-31T11:11:29.139Z,70.00
2022-12-31T11:14:38.945Z,69.80
2022-12-31T11:17:24.863Z,69.70
2022-12-31T11:20:04.604Z,69.40
2022-12-31T11:22:49.182Z,69.60
2022-12-31T11:25:31.475Z,69.40
2022-12-31T11:28:18.446Z,69.40
2022-12-31T11:31:12.333Z,69.40
2022-12-31T11:33:54.515Z,69.50
2022-12-31T11:36:32.824Z,69.60
2022-12-31T11:39:24.569Z,69.50
2022-12-31T11:42:04.722Z,69.50
2022-12-31T11:44:45.921Z,69.50
2022-12-31T11:47:33.287Z,69.80
2022-12-31T11:50:23.759Z,69.80
2022-12-31T11:52:58.272Z,69.80
2022-12-31T11:55:42.164Z,69.80
2022-12-31T11:58:15.763Z,70.00
2022-12-31T12:00:50.987Z,70.00
2022-12-31T12:03:19.291Z,70.10
2022-12-31T12:05:48.990Z,70.30
2022-12-31T12:08:18.013Z,70.30
2022-12-31T12:10:48.467Z,70.40
2022-12-31T12:13:25.088Z,70.50
2022-12-31T12:15:56.900Z,70.80
2022-12-31T12:18:27.446Z,70.90
2022-12-31T12:21:04.209Z,71.10
2022-12-31T12:23:33.030Z,70.90
2022-12-31T12:38:16.963Z,72.60
2022-12-31T12:40:55.449Z,73.90
2022-12-31T12:43:27.148Z,74.10
2022-12-31T12:46:00.245Z,73.90
2022-12-31T12:48:35.756Z,73.70
2022-12-31T12:51:12.109Z,73.40
2022-12-31T12:53:49.985Z,73.00
2022-12-31T12:56:27.558Z,72.90
2022-12-31T12:59:11.098Z,72.70
2022-12-31T13:01:44.090Z,72.50
2022-12-31T13:04:35.809Z,72.40
2022-12-31T13:07:17.720Z,72.40
2022-12-31T13:10:06.356Z,72.30
2022-12-31T13:13:21.662Z,72.10
2022-12-31T13:15:35.397Z,72.10
2022-12-31T13:18:14.772Z,72.00
2022-12-31T13:20:48.861Z,71.80
2022-12-31T13:23:24.446Z,71.70
2022-12-31T13:26:05.866Z,71.60
2022-12-31T13:28:35.710Z,71.40
2022-12-31T13:31:07.956Z,71.30
2022-12-31T13:33:40.961Z,71.30
2022-12-31T13:36:11.307Z,71.30
2022-12-31T13:38:42.441Z,71.20
2022-12-31T13:41:18.593Z,71.30
2022-12-31T13:43:54.388Z,71.00
2022-12-31T13:46:33.507Z,71.00
2022-12-31T13:49:05.336Z,71.60
2022-12-31T13:51:39.313Z,70.80
2022-12-31T13:54:19.156Z,71.20
2022-12-31T13:56:50.653Z,70.60
2022-12-31T13:59:23.566Z,70.50
2022-12-31T14:01:55.463Z,70.60
2022-12-31T14:04:31.013Z,70.60
2022-12-31T14:07:03.227Z,70.50
2022-12-31T14:09:34.838Z,70.50
2022-12-31T14:12:14.783Z,70.50
2022-12-31T14:14:54.690Z,70.40
2022-12-31T14:17:29.693Z,70.30
2022-12-31T14:20:07.303Z,70.30
2022-12-31T14:22:44.419Z,70.20
2022-12-31T14:25:21.089Z,70.20
2022-12-31T14:27:53.306Z,70.00
2022-12-31T14:30:23.246Z,70.60
2022-12-31T14:33:03.056Z,69.90
2022-12-31T14:35:41.479Z,69.60
2022-12-31T14:38:19.577Z,69.40
2022-12-31T14:40:57.514Z,69.40
2022-12-31T14:43:38.961Z,69.30
2022-12-31T14:46:17.111Z,69.30
2022-12-31T14:48:56.340Z,69.30
2022-12-31T14:51:29.360Z,69.30
2022-12-31T14:53:59.063Z,69.10
2022-12-31T14:56:31.928Z,69.00
2022-12-31T14:59:03.576Z,69.10
2022-12-31T15:01:31.757Z,69.00
2022-12-31T15:04:00.005Z,69.00
2022-12-31T15:06:51.465Z,68.90
2022-12-31T15:09:36.484Z,68.70
2022-12-31T15:12:22.081Z,68.70
2022-12-31T15:15:09.840Z,68.70
2022-12-31T15:17:49.981Z,68.80
2022-12-31T15:20:35.379Z,68.60
2022-12-31T15:23:03.886Z,68.60
2022-12-31T15:25:40.306Z,68.70
2022-12-31T15:28:29.493Z,68.70
2022-12-31T15:31:04.254Z,68.70
2022-12-31T15:33:37.587Z,68.80
2022-12-31T15:36:21.350Z,68.60
2022-12-31T15:38:50.211Z,68.40
2022-12-31T15:41:28.714Z,68.50
2022-12-31T15:44:02.152Z,68.30
2022-12-31T15:46:34.845Z,68.30
2022-12-31T15:49:10.280Z,68.10
2022-12-31T15:51:48.093Z,68.10
2022-12-31T15:54:25.821Z,68.00
2022-12-31T15:56:55.349Z,67.80
2022-12-31T15:59:26.186Z,68.00
2022-12-31T16:01:57.356Z,67.90
2022-12-31T16:04:28.376Z,67.70
2022-12-31T16:07:00.596Z,67.80
2022-12-31T16:09:30.609Z,67.70
2022-12-31T16:12:00.364Z,67.80
2022-12-31T16:14:33.736Z,67.90
2022-12-31T16:17:04.682Z,67.60
2022-12-31T16:19:36.005Z,67.30
2022-12-31T16:22:09.751Z,66.90
2022-12-31T16:25:02.593Z,66.40
2022-12-31T16:27:27.939Z,66.30
2022-12-31T16:30:01.263Z,66.70
2022-12-31T16:32:36.624Z,66.10
2022-12-31T16:35:12.059Z,65.60
2022-12-31T16:37:45.726Z,65.60
2022-12-31T16:40:21.797Z,65.10
2022-12-31T16:42:51.562Z,64.30
2022-12-31T16:45:34.271Z,64.60
2022-12-31T16:48:16.329Z,64.10
2022-12-31T16:50:46.005Z,64.10
2022-12-31T16:53:17.933Z,64.20
2022-12-31T16:55:51.489Z,64.20
2022-12-31T16:58:23.175Z,65.20
2022-12-31T17:00:52.857Z,64.50
2022-12-31T17:03:25.051Z,64.50
2022-12-31T17:06:04.293Z,64.50
2022-12-31T17:08:41.525Z,64.30
2022-12-31T17:11:28.694Z,64.30
2022-12-31T17:13:59.180Z,64.40
2022-12-31T17:16:27.824Z,64.60
2022-12-31T17:18:57.482Z,64.50
2022-12-31T17:21:28.688Z,64.40
2022-12-31T17:24:01.906Z,64.50
2022-12-31T17:26:32.716Z,64.50
2022-12-31T17:29:03.078Z,64.30
2022-12-31T17:31:37.065Z,64.40
2022-12-31T17:34:30.407Z,64.30
2022-12-31T17:37:04.257Z,64.10
2022-12-31T17:39:45.406Z,64.20
2022-12-31T17:42:14.811Z,64.30
2022-12-31T17:44:45.483Z,64.30
2022-12-31T17:47:15.054Z,64.30
2022-12-31T17:49:46.862Z,64.20
2022-12-31T17:52:16.141Z,64.10
2022-12-31T17:54:44.556Z,64.00
2022-12-31T17:57:25.006Z,64.00
2022-12-31T17:59:53.353Z,63.90
2022-12-31T18:02:21.909Z,63.90
2022-12-31T18:04:51.532Z,63.80
2022-12-31T18:07:19.686Z,63.80
2022-12-31T18:09:47.821Z,63.70
2022-12-31T18:12:16.757Z,63.80
2022-12-31T18:14:46.646Z,63.90
2022-12-31T18:17:17.305Z,63.70
2022-12-31T18:20:04.130Z,63.70
2022-12-31T18:22:35.050Z,63.50
2022-12-31T18:25:04.268Z,63.40
2022-12-31T18:27:34.050Z,63.50
2022-12-31T18:30:05.317Z,63.50
2022-12-31T18:32:35.327Z,63.40
2022-12-31T18:35:03.501Z,63.50
2022-12-31T18:37:37.746Z,63.50
2022-12-31T18:40:08.381Z,63.20
2022-12-31T18:42:36.570Z,62.90
2022-12-31T18:45:05.330Z,63.10
2022-12-31T18:47:37.685Z,63.50
2022-12-31T18:50:07.128Z,63.10
2022-12-31T18:52:35.336Z,63.00
2022-12-31T18:55:03.592Z,62.90
2022-12-31T18:57:33.172Z,62.70
2022-12-31T19:00:01.318Z,62.60
2022-12-31T19:02:29.466Z,62.60
2022-12-31T19:04:57.631Z,62.50
2022-12-31T19:07:25.788Z,62.50
2022-12-31T19:09:58.355Z,62.40
2022-12-31T19:12:26.911Z,62.40
2022-12-31T19:14:56.476Z,62.30
2022-12-31T19:17:24.654Z,62.30
2022-12-31T19:19:52.805Z,62.40
2022-12-31T19:22:20.965Z,62.50
2022-12-31T19:24:49.122Z,62.30
2022-12-31T19:27:17.393Z,62.60
2022-12-31T19:29:46.053Z,62.40
2022-12-31T19:32:15.579Z,62.10
2022-12-31T19:34:43.776Z,62.10
2022-12-31T19:37:14.938Z,62.10
2022-12-31T19:39:43.091Z,61.90
2022-12-31T19:42:16.611Z,62.30
2022-12-31T19:44:44.753Z,62.00
2022-12-31T19:47:15.118Z,62.10
2022-12-31T19:49:43.302Z,61.90
2022-12-31T19:52:12.167Z,61.80
2022-12-31T19:54:40.325Z,61.80
2022-12-31T19:57:08.541Z,62.40
2022-12-31T19:59:36.716Z,61.70
2022-12-31T20:02:05.156Z,62.60
2022-12-31T20:04:34.731Z,61.70
2022-12-31T20:07:02.916Z,61.30
2022-12-31T20:09:31.083Z,62.10
2022-12-31T20:11:59.244Z,61.30
2022-12-31T20:14:27.413Z,60.90
2022-12-31T20:16:56.076Z,61.00
2022-12-31T20:19:24.291Z,61.10
2022-12-31T20:21:53.794Z,61.20
2022-12-31T20:24:21.962Z,60.60
2022-12-31T20:26:50.140Z,60.70
2022-12-31T20:29:18.473Z,60.70
2022-12-31T20:31:46.621Z,60.70
2022-12-31T20:34:14.928Z,60.40
2022-12-31T20:36:43.128Z,60.40
2022-12-31T20:39:12.665Z,60.50
2022-12-31T20:41:40.876Z,60.30
2022-12-31T20:44:09.212Z,60.50
2022-12-31T20:46:37.389Z,60.60
2022-12-31T20:49:06.338Z,60.50
2022-12-31T20:51:36.213Z,60.60
2022-12-31T20:54:06.543Z,60.60
2022-12-31T20:56:38.247Z,60.70
2022-12-31T20:59:07.966Z,60.60
2022-12-31T21:02:18.892Z,60.40
2022-12-31T21:04:25.027Z,60.60
2022-12-31T21:06:53.457Z,60.40
2022-12-31T21:09:21.650Z,60.40
2022-12-31T21:12:08.962Z,60.20
2022-12-31T21:14:42.815Z,60.10
2022-12-31T21:17:12.829Z,60.00
2022-12-31T21:19:40.969Z,60.00
2022-12-31T21:22:09.141Z,60.00
2022-12-31T21:24:37.681Z,59.90
2022-12-31T21:27:07.557Z,59.90
2022-12-31T21:29:41.904Z,59.70
2022-12-31T21:32:18.676Z,59.70
2022-12-31T21:35:06.517Z,59.70
2022-12-31T21:37:58.903Z,59.80
2022-12-31T21:40:23.120Z,59.70
2022-12-31T21:42:52.951Z,59.60
2022-12-31T21:45:21.122Z,59.40
2022-12-31T21:48:06.626Z,59.60
2022-12-31T21:50:35.190Z,59.70
2022-12-31T21:53:03.491Z,59.60
2022-12-31T21:55:49.074Z,59.50
2022-12-31T21:58:27.697Z,59.50
2022-12-31T22:01:14.312Z,59.60
2022-12-31T22:03:42.847Z,59.70
2022-12-31T22:06:13.545Z,59.60
2022-12-31T22:08:43.435Z,59.50
2022-12-31T22:11:13.334Z,59.60
2022-12-31T22:13:43.023Z,59.70
2022-12-31T22:16:13.128Z,59.50
2022-12-31T22:18:44.136Z,59.60
2022-12-31T22:21:18.726Z,59.60
2022-12-31T22:23:49.309Z,59.40
2022-12-31T22:26:20.081Z,59.20
2022-12-31T22:28:49.610Z,59.40
2022-12-31T22:31:19.624Z,59.20
2022-12-31T22:33:48.785Z,59.20
2022-12-31T22:36:18.675Z,59.00
2022-12-31T22:38:47.280Z,59.20
2022-12-31T22:41:16.900Z,59.10
2022-12-31T22:43:47.242Z,58.90
2022-12-31T22:46:19.112Z,58.90
2022-12-31T22:48:47.148Z,58.70
2022-12-31T22:51:16.569Z,59.50
2022-12-31T22:53:45.008Z,59.00
2022-12-31T22:56:15.043Z,58.80
2022-12-31T22:58:43.235Z,58.70
2022-12-31T23:01:20.191Z,58.90
2022-12-31T23:03:49.419Z,58.80
2022-12-31T23:06:18.250Z,58.90
2022-12-31T23:09:06.851Z,58.70
2022-12-31T23:11:35.935Z,59.00
2022-12-31T23:14:21.692Z,59.00
2022-12-31T23:17:29.565Z,59.10
2022-12-31T23:20:13.750Z,59.10
2022-12-31T23:22:59.407Z,59.40
2022-12-31T23:25:27.633Z,59.30
2022-12-31T23:27:55.797Z,59.40
2022-12-31T23:30:23.980Z,59.50
2022-12-31T23:32:53.869Z,59.50
2022-12-31T23:35:22.438Z,59.50
2022-12-31T23:37:50.911Z,59.40
2022-12-31T23:40:21.882Z,59.40
2022-12-31T23:42:50.399Z,59.50
2022-12-31T23:45:18.704Z,59.60
2022-12-31T23:47:46.849Z,59.70
2022-12-31T23:50:16.480Z,59.80
2022-12-31T23:52:44.624Z,60.00
2022-12-31T23:55:12.779Z,60.00
2022-12-31T23:57:40.972Z,60.20
